sensor_id;sensor_type;location;lat;lon;timestamp;P1;durP1;ratioP1;P2;durP2;ratioP2
25936;SDS011;13733;51.178;4.450;2023-06-22T00:02:17;8.02;;;3.83;;
25936;SDS011;13733;51.178;4.450;2023-06-22T00:04:43;4.50;;;3.40;;
25936;SDS011;13733;51.178;4.450;2023-06-22T00:07:09;5.38;;;3.67;;
25936;SDS011;13733;51.178;4.450;2023-06-22T00:09:35;6.70;;;3.55;;
25936;SDS011;13733;51.178;4.450;2023-06-22T00:12:01;4.55;;;3.65;;
25936;SDS011;13733;51.178;4.450;2023-06-22T00:14:27;8.48;;;3.92;;
25936;SDS011;13733;51.178;4.450;2023-06-22T00:16:53;4.13;;;3.60;;
25936;SDS011;13733;51.178;4.450;2023-06-22T00:19:22;4.75;;;3.47;;
25936;SDS011;13733;51.178;4.450;2023-06-22T00:21:52;5.40;;;3.50;;
25936;SDS011;13733;51.178;4.450;2023-06-22T00:24:21;5.50;;;3.70;;
25936;SDS011;13733;51.178;4.450;2023-06-22T00:26:47;8.80;;;4.00;;
25936;SDS011;13733;51.178;4.450;2023-06-22T00:29:15;6.72;;;3.65;;
25936;SDS011;13733;51.178;4.450;2023-06-22T00:31:41;5.75;;;3.70;;
25936;SDS011;13733;51.178;4.450;2023-06-22T00:34:07;6.93;;;3.30;;
25936;SDS011;13733;51.178;4.450;2023-06-22T00:36:35;6.25;;;3.47;;
25936;SDS011;13733;51.178;4.450;2023-06-22T00:39:02;4.63;;;3.60;;
25936;SDS011;13733;51.178;4.450;2023-06-22T00:41:29;5.25;;;3.70;;
25936;SDS011;13733;51.178;4.450;2023-06-22T00:43:55;5.38;;;3.58;;
25936;SDS011;13733;51.178;4.450;2023-06-22T00:46:21;8.13;;;3.30;;
25936;SDS011;13733;51.178;4.450;2023-06-22T00:48:48;5.72;;;3.35;;
25936;SDS011;13733;51.178;4.450;2023-06-22T00:51:14;7.38;;;3.78;;
25936;SDS011;13733;51.178;4.450;2023-06-22T00:53:40;5.20;;;3.67;;
25936;SDS011;13733;51.178;4.450;2023-06-22T00:56:09;6.07;;;4.25;;
25936;SDS011;13733;51.178;4.450;2023-06-22T00:58:37;5.47;;;3.70;;
25936;SDS011;13733;51.178;4.450;2023-06-22T01:01:07;6.32;;;3.90;;
25936;SDS011;13733;51.178;4.450;2023-06-22T01:03:33;4.78;;;3.92;;
25936;SDS011;13733;51.178;4.450;2023-06-22T01:06:08;8.27;;;3.72;;
25936;SDS011;13733;51.178;4.450;2023-06-22T01:08:49;6.88;;;4.13;;
25936;SDS011;13733;51.178;4.450;2023-06-22T01:11:23;6.80;;;3.97;;
25936;SDS011;13733;51.178;4.450;2023-06-22T01:14:01;6.57;;;4.30;;
25936;SDS011;13733;51.178;4.450;2023-06-22T01:16:43;7.25;;;4.35;;
25936;SDS011;13733;51.178;4.450;2023-06-22T01:19:29;5.45;;;3.97;;
25936;SDS011;13733;51.178;4.450;2023-06-22T01:22:01;9.18;;;4.30;;
25936;SDS011;13733;51.178;4.450;2023-06-22T01:24:33;10.85;;;4.38;;
25936;SDS011;13733;51.178;4.450;2023-06-22T01:29:42;6.15;;;4.20;;
25936;SDS011;13733;51.178;4.450;2023-06-22T01:32:09;4.30;;;3.75;;
25936;SDS011;13733;51.178;4.450;2023-06-22T01:34:36;8.02;;;4.80;;
25936;SDS011;13733;51.178;4.450;2023-06-22T01:37:05;6.65;;;4.93;;
25936;SDS011;13733;51.178;4.450;2023-06-22T01:39:32;6.00;;;4.55;;
25936;SDS011;13733;51.178;4.450;2023-06-22T01:41:58;7.82;;;5.07;;
25936;SDS011;13733;51.178;4.450;2023-06-22T01:44:26;7.35;;;5.05;;
25936;SDS011;13733;51.178;4.450;2023-06-22T01:46:52;13.13;;;4.85;;
25936;SDS011;13733;51.178;4.450;2023-06-22T01:49:19;8.05;;;4.93;;
25936;SDS011;13733;51.178;4.450;2023-06-22T01:51:46;14.30;;;5.32;;
25936;SDS011;13733;51.178;4.450;2023-06-22T01:54:12;8.13;;;4.40;;
25936;SDS011;13733;51.178;4.450;2023-06-22T01:56:38;5.60;;;4.63;;
25936;SDS011;13733;51.178;4.450;2023-06-22T02:04:08;6.93;;;5.50;;
25936;SDS011;13733;51.178;4.450;2023-06-22T02:06:38;6.95;;;5.22;;
25936;SDS011;13733;51.178;4.450;2023-06-22T02:09:09;6.80;;;5.00;;
25936;SDS011;13733;51.178;4.450;2023-06-22T02:11:41;9.20;;;5.30;;
25936;SDS011;13733;51.178;4.450;2023-06-22T02:14:08;6.00;;;4.80;;
25936;SDS011;13733;51.178;4.450;2023-06-22T02:16:35;8.75;;;5.30;;
25936;SDS011;13733;51.178;4.450;2023-06-22T02:19:02;6.43;;;5.13;;
25936;SDS011;13733;51.178;4.450;2023-06-22T02:21:28;7.40;;;5.15;;
25936;SDS011;13733;51.178;4.450;2023-06-22T02:23:55;8.40;;;5.90;;
25936;SDS011;13733;51.178;4.450;2023-06-22T02:26:22;5.47;;;4.70;;
25936;SDS011;13733;51.178;4.450;2023-06-22T02:28:49;9.00;;;5.97;;
25936;SDS011;13733;51.178;4.450;2023-06-22T02:31:16;6.47;;;5.20;;
25936;SDS011;13733;51.178;4.450;2023-06-22T02:33:42;10.90;;;5.90;;
25936;SDS011;13733;51.178;4.450;2023-06-22T02:36:09;7.10;;;5.85;;
25936;SDS011;13733;51.178;4.450;2023-06-22T02:38:38;7.22;;;4.97;;
25936;SDS011;13733;51.178;4.450;2023-06-22T02:41:13;7.28;;;5.30;;
25936;SDS011;13733;51.178;4.450;2023-06-22T02:43:43;8.60;;;6.30;;
25936;SDS011;13733;51.178;4.450;2023-06-22T02:46:12;7.25;;;5.88;;
25936;SDS011;13733;51.178;4.450;2023-06-22T02:48:40;12.95;;;6.30;;
25936;SDS011;13733;51.178;4.450;2023-06-22T02:51:06;8.07;;;6.43;;
25936;SDS011;13733;51.178;4.450;2023-06-22T02:53:33;8.88;;;6.80;;
25936;SDS011;13733;51.178;4.450;2023-06-22T02:56:03;8.38;;;6.88;;
25936;SDS011;13733;51.178;4.450;2023-06-22T02:58:35;9.45;;;7.35;;
25936;SDS011;13733;51.178;4.450;2023-06-22T03:01:04;10.48;;;6.95;;
25936;SDS011;13733;51.178;4.450;2023-06-22T03:03:34;8.35;;;6.82;;
25936;SDS011;13733;51.178;4.450;2023-06-22T03:06:00;10.23;;;7.95;;
25936;SDS011;13733;51.178;4.450;2023-06-22T03:08:27;10.68;;;8.10;;
25936;SDS011;13733;51.178;4.450;2023-06-22T03:10:54;9.95;;;7.60;;
25936;SDS011;13733;51.178;4.450;2023-06-22T03:13:20;9.65;;;7.68;;
25936;SDS011;13733;51.178;4.450;2023-06-22T03:15:47;9.60;;;7.57;;
25936;SDS011;13733;51.178;4.450;2023-06-22T03:18:12;12.88;;;7.70;;
25936;SDS011;13733;51.178;4.450;2023-06-22T03:20:38;12.45;;;8.30;;
25936;SDS011;13733;51.178;4.450;2023-06-22T03:23:04;11.48;;;8.82;;
25936;SDS011;13733;51.178;4.450;2023-06-22T03:25:31;10.13;;;8.05;;
25936;SDS011;13733;51.178;4.450;2023-06-22T03:28:00;11.15;;;8.23;;
25936;SDS011;13733;51.178;4.450;2023-06-22T03:30:26;12.15;;;8.55;;
25936;SDS011;13733;51.178;4.450;2023-06-22T03:32:52;11.13;;;8.48;;
25936;SDS011;13733;51.178;4.450;2023-06-22T03:35:18;11.90;;;8.07;;
25936;SDS011;13733;51.178;4.450;2023-06-22T03:37:45;11.88;;;8.95;;
25936;SDS011;13733;51.178;4.450;2023-06-22T03:40:11;11.45;;;8.73;;
25936;SDS011;13733;51.178;4.450;2023-06-22T03:42:37;12.98;;;9.40;;
25936;SDS011;13733;51.178;4.450;2023-06-22T03:45:03;14.32;;;9.35;;
25936;SDS011;13733;51.178;4.450;2023-06-22T03:47:29;13.88;;;9.68;;
25936;SDS011;13733;51.178;4.450;2023-06-22T03:49:57;15.00;;;10.27;;
25936;SDS011;13733;51.178;4.450;2023-06-22T03:52:22;14.05;;;9.35;;
25936;SDS011;13733;51.178;4.450;2023-06-22T03:54:48;11.90;;;9.25;;
25936;SDS011;13733;51.178;4.450;2023-06-22T03:57:14;11.57;;;9.18;;
25936;SDS011;13733;51.178;4.450;2023-06-22T03:59:41;12.68;;;9.90;;
25936;SDS011;13733;51.178;4.450;2023-06-22T04:02:07;17.25;;;10.43;;
25936;SDS011;13733;51.178;4.450;2023-06-22T04:04:33;12.80;;;10.05;;
25936;SDS011;13733;51.178;4.450;2023-06-22T04:07:00;14.55;;;11.32;;
25936;SDS011;13733;51.178;4.450;2023-06-22T04:09:26;14.30;;;10.82;;
25936;SDS011;13733;51.178;4.450;2023-06-22T04:11:51;15.88;;;11.45;;
25936;SDS011;13733;51.178;4.450;2023-06-22T04:14:17;15.75;;;10.90;;
25936;SDS011;13733;51.178;4.450;2023-06-22T04:16:43;18.27;;;11.68;;
25936;SDS011;13733;51.178;4.450;2023-06-22T04:19:08;14.13;;;11.75;;
25936;SDS011;13733;51.178;4.450;2023-06-22T04:21:41;19.02;;;11.93;;
25936;SDS011;13733;51.178;4.450;2023-06-22T04:24:07;14.63;;;11.32;;
25936;SDS011;13733;51.178;4.450;2023-06-22T04:26:33;19.25;;;11.25;;
25936;SDS011;13733;51.178;4.450;2023-06-22T04:29:02;15.88;;;11.38;;
25936;SDS011;13733;51.178;4.450;2023-06-22T04:31:30;15.93;;;12.73;;
25936;SDS011;13733;51.178;4.450;2023-06-22T04:33:57;13.45;;;11.60;;
25936;SDS011;13733;51.178;4.450;2023-06-22T04:36:31;16.38;;;12.50;;
25936;SDS011;13733;51.178;4.450;2023-06-22T04:39:12;18.52;;;12.43;;
25936;SDS011;13733;51.178;4.450;2023-06-22T04:41:38;18.23;;;14.07;;
25936;SDS011;13733;51.178;4.450;2023-06-22T04:44:09;16.95;;;12.63;;
25936;SDS011;13733;51.178;4.450;2023-06-22T04:46:39;17.48;;;13.50;;
25936;SDS011;13733;51.178;4.450;2023-06-22T04:49:06;18.52;;;13.88;;
25936;SDS011;13733;51.178;4.450;2023-06-22T04:51:41;21.30;;;14.33;;
25936;SDS011;13733;51.178;4.450;2023-06-22T04:54:08;17.60;;;13.35;;
25936;SDS011;13733;51.178;4.450;2023-06-22T04:56:34;17.73;;;13.80;;
25936;SDS011;13733;51.178;4.450;2023-06-22T04:59:00;18.60;;;14.27;;
25936;SDS011;13733;51.178;4.450;2023-06-22T05:01:26;16.17;;;14.27;;
25936;SDS011;13733;51.178;4.450;2023-06-22T05:03:52;16.20;;;13.80;;
25936;SDS011;13733;51.178;4.450;2023-06-22T05:06:23;17.40;;;14.20;;
25936;SDS011;13733;51.178;4.450;2023-06-22T05:08:53;22.95;;;16.05;;
25936;SDS011;13733;51.178;4.450;2023-06-22T05:11:28;19.10;;;15.82;;
25936;SDS011;13733;51.178;4.450;2023-06-22T05:13:54;23.25;;;15.75;;
25936;SDS011;13733;51.178;4.450;2023-06-22T05:16:20;16.77;;;14.93;;
25936;SDS011;13733;51.178;4.450;2023-06-22T05:18:50;19.08;;;15.43;;
25936;SDS011;13733;51.178;4.450;2023-06-22T05:21:21;18.38;;;15.15;;
25936;SDS011;13733;51.178;4.450;2023-06-22T05:23:48;26.17;;;15.40;;
25936;SDS011;13733;51.178;4.450;2023-06-22T05:26:14;17.88;;;14.77;;
25936;SDS011;13733;51.178;4.450;2023-06-22T05:28:40;19.73;;;14.23;;
25936;SDS011;13733;51.178;4.450;2023-06-22T05:31:05;21.58;;;15.70;;
25936;SDS011;13733;51.178;4.450;2023-06-22T05:33:31;19.40;;;15.15;;
25936;SDS011;13733;51.178;4.450;2023-06-22T05:35:57;21.58;;;15.70;;
25936;SDS011;13733;51.178;4.450;2023-06-22T05:38:23;24.00;;;14.63;;
25936;SDS011;13733;51.178;4.450;2023-06-22T05:40:48;19.83;;;14.07;;
25936;SDS011;13733;51.178;4.450;2023-06-22T05:43:14;19.83;;;13.85;;
25936;SDS011;13733;51.178;4.450;2023-06-22T05:45:40;25.88;;;14.60;;
25936;SDS011;13733;51.178;4.450;2023-06-22T05:48:06;23.45;;;14.10;;
25936;SDS011;13733;51.178;4.450;2023-06-22T05:50:32;27.58;;;15.25;;
25936;SDS011;13733;51.178;4.450;2023-06-22T05:52:58;22.88;;;13.10;;
25936;SDS011;13733;51.178;4.450;2023-06-22T05:55:23;20.98;;;14.02;;
25936;SDS011;13733;51.178;4.450;2023-06-22T05:57:49;20.08;;;14.93;;
25936;SDS011;13733;51.178;4.450;2023-06-22T06:00:15;21.80;;;14.50;;
25936;SDS011;13733;51.178;4.450;2023-06-22T06:02:41;25.60;;;14.27;;
25936;SDS011;13733;51.178;4.450;2023-06-22T06:05:11;19.48;;;13.18;;
25936;SDS011;13733;51.178;4.450;2023-06-22T06:07:40;19.15;;;14.38;;
25936;SDS011;13733;51.178;4.450;2023-06-22T06:10:06;22.08;;;13.55;;
25936;SDS011;13733;51.178;4.450;2023-06-22T06:12:33;22.23;;;14.75;;
25936;SDS011;13733;51.178;4.450;2023-06-22T06:14:59;31.75;;;15.07;;
25936;SDS011;13733;51.178;4.450;2023-06-22T06:17:25;19.77;;;13.48;;
25936;SDS011;13733;51.178;4.450;2023-06-22T06:19:51;18.30;;;14.65;;
25936;SDS011;13733;51.178;4.450;2023-06-22T06:22:16;16.58;;;13.82;;
25936;SDS011;13733;51.178;4.450;2023-06-22T06:24:43;32.03;;;15.25;;
25936;SDS011;13733;51.178;4.450;2023-06-22T06:27:09;20.30;;;14.63;;
25936;SDS011;13733;51.178;4.450;2023-06-22T06:29:35;16.02;;;13.70;;
25936;SDS011;13733;51.178;4.450;2023-06-22T06:32:01;26.27;;;14.35;;
25936;SDS011;13733;51.178;4.450;2023-06-22T06:34:27;16.55;;;13.75;;
25936;SDS011;13733;51.178;4.450;2023-06-22T06:36:53;18.80;;;14.50;;
25936;SDS011;13733;51.178;4.450;2023-06-22T06:39:19;15.95;;;13.77;;
25936;SDS011;13733;51.178;4.450;2023-06-22T06:41:46;17.38;;;14.45;;
25936;SDS011;13733;51.178;4.450;2023-06-22T06:44:14;21.27;;;14.27;;
25936;SDS011;13733;51.178;4.450;2023-06-22T06:46:40;18.80;;;14.98;;
25936;SDS011;13733;51.178;4.450;2023-06-22T06:49:07;16.20;;;14.50;;
25936;SDS011;13733;51.178;4.450;2023-06-22T06:51:32;16.85;;;13.05;;
25936;SDS011;13733;51.178;4.450;2023-06-22T06:53:58;18.60;;;13.43;;
25936;SDS011;13733;51.178;4.450;2023-06-22T06:56:24;19.75;;;14.77;;
25936;SDS011;13733;51.178;4.450;2023-06-22T06:58:50;19.73;;;14.85;;
25936;SDS011;13733;51.178;4.450;2023-06-22T07:01:16;23.38;;;15.77;;
25936;SDS011;13733;51.178;4.450;2023-06-22T07:03:42;22.35;;;14.85;;
25936;SDS011;13733;51.178;4.450;2023-06-22T07:06:08;23.83;;;14.25;;
25936;SDS011;13733;51.178;4.450;2023-06-22T07:08:34;24.00;;;15.05;;
25936;SDS011;13733;51.178;4.450;2023-06-22T07:11:04;22.73;;;14.60;;
25936;SDS011;13733;51.178;4.450;2023-06-22T07:13:30;19.67;;;14.57;;
25936;SDS011;13733;51.178;4.450;2023-06-22T07:15:56;22.80;;;15.35;;
25936;SDS011;13733;51.178;4.450;2023-06-22T07:18:23;22.52;;;15.02;;
25936;SDS011;13733;51.178;4.450;2023-06-22T07:20:49;20.45;;;14.25;;
25936;SDS011;13733;51.178;4.450;2023-06-22T07:23:14;19.92;;;14.65;;
25936;SDS011;13733;51.178;4.450;2023-06-22T07:25:41;20.30;;;13.98;;
25936;SDS011;13733;51.178;4.450;2023-06-22T07:28:07;17.92;;;14.98;;
25936;SDS011;13733;51.178;4.450;2023-06-22T07:30:33;17.02;;;14.20;;
25936;SDS011;13733;51.178;4.450;2023-06-22T07:33:00;17.42;;;14.20;;
25936;SDS011;13733;51.178;4.450;2023-06-22T07:35:31;24.52;;;15.20;;
25936;SDS011;13733;51.178;4.450;2023-06-22T07:37:57;22.27;;;13.90;;
25936;SDS011;13733;51.178;4.450;2023-06-22T07:40:23;21.67;;;15.02;;
25936;SDS011;13733;51.178;4.450;2023-06-22T07:42:50;22.13;;;14.05;;
25936;SDS011;13733;51.178;4.450;2023-06-22T07:45:18;29.48;;;15.23;;
25936;SDS011;13733;51.178;4.450;2023-06-22T07:47:44;22.85;;;15.38;;
25936;SDS011;13733;51.178;4.450;2023-06-22T07:50:09;25.15;;;14.35;;
25936;SDS011;13733;51.178;4.450;2023-06-22T07:52:35;20.73;;;14.57;;
25936;SDS011;13733;51.178;4.450;2023-06-22T07:55:01;20.52;;;13.60;;
25936;SDS011;13733;51.178;4.450;2023-06-22T07:57:27;20.83;;;13.45;;
25936;SDS011;13733;51.178;4.450;2023-06-22T07:59:59;21.27;;;14.57;;
25936;SDS011;13733;51.178;4.450;2023-06-22T08:02:25;22.00;;;14.05;;
25936;SDS011;13733;51.178;4.450;2023-06-22T08:04:51;18.42;;;14.05;;
25936;SDS011;13733;51.178;4.450;2023-06-22T08:07:17;21.02;;;14.20;;
25936;SDS011;13733;51.178;4.450;2023-06-22T08:09:48;23.40;;;13.65;;
25936;SDS011;13733;51.178;4.450;2023-06-22T08:12:14;21.38;;;13.85;;
25936;SDS011;13733;51.178;4.450;2023-06-22T08:14:41;21.08;;;13.43;;
25936;SDS011;13733;51.178;4.450;2023-06-22T08:17:09;17.17;;;13.70;;
25936;SDS011;13733;51.178;4.450;2023-06-22T08:19:36;20.17;;;12.85;;
25936;SDS011;13733;51.178;4.450;2023-06-22T08:22:02;18.67;;;12.82;;
25936;SDS011;13733;51.178;4.450;2023-06-22T08:24:28;19.60;;;13.48;;
25936;SDS011;13733;51.178;4.450;2023-06-22T08:26:55;20.88;;;14.95;;
25936;SDS011;13733;51.178;4.450;2023-06-22T08:29:21;21.55;;;13.77;;
25936;SDS011;13733;51.178;4.450;2023-06-22T08:31:47;18.98;;;13.20;;
25936;SDS011;13733;51.178;4.450;2023-06-22T08:34:13;16.13;;;13.48;;
25936;SDS011;13733;51.178;4.450;2023-06-22T08:36:38;23.50;;;15.10;;
25936;SDS011;13733;51.178;4.450;2023-06-22T08:39:18;17.48;;;13.63;;
25936;SDS011;13733;51.178;4.450;2023-06-22T08:41:45;18.63;;;14.77;;
25936;SDS011;13733;51.178;4.450;2023-06-22T08:44:12;20.80;;;14.90;;
25936;SDS011;13733;51.178;4.450;2023-06-22T08:46:38;19.70;;;14.23;;
25936;SDS011;13733;51.178;4.450;2023-06-22T08:49:06;17.67;;;15.15;;
25936;SDS011;13733;51.178;4.450;2023-06-22T08:51:32;16.90;;;14.63;;
25936;SDS011;13733;51.178;4.450;2023-06-22T08:53:57;18.45;;;14.63;;
25936;SDS011;13733;51.178;4.450;2023-06-22T08:56:23;19.65;;;14.73;;
25936;SDS011;13733;51.178;4.450;2023-06-22T08:58:49;20.38;;;15.93;;
25936;SDS011;13733;51.178;4.450;2023-06-22T09:01:14;22.30;;;15.10;;
25936;SDS011;13733;51.178;4.450;2023-06-22T09:03:40;23.98;;;15.05;;
25936;SDS011;13733;51.178;4.450;2023-06-22T09:06:06;20.45;;;14.95;;
25936;SDS011;13733;51.178;4.450;2023-06-22T09:08:34;26.42;;;15.40;;
25936;SDS011;13733;51.178;4.450;2023-06-22T09:11:00;17.55;;;15.68;;
25936;SDS011;13733;51.178;4.450;2023-06-22T09:13:27;23.73;;;16.38;;
25936;SDS011;13733;51.178;4.450;2023-06-22T09:15:55;21.15;;;15.68;;
25936;SDS011;13733;51.178;4.450;2023-06-22T09:18:21;31.15;;;18.33;;
25936;SDS011;13733;51.178;4.450;2023-06-22T09:20:47;21.40;;;16.50;;
25936;SDS011;13733;51.178;4.450;2023-06-22T09:23:13;25.75;;;16.17;;
25936;SDS011;13733;51.178;4.450;2023-06-22T09:25:39;25.20;;;16.55;;
25936;SDS011;13733;51.178;4.450;2023-06-22T09:28:06;24.33;;;15.70;;
25936;SDS011;13733;51.178;4.450;2023-06-22T09:30:31;20.13;;;15.45;;
25936;SDS011;13733;51.178;4.450;2023-06-22T09:32:57;20.40;;;15.35;;
25936;SDS011;13733;51.178;4.450;2023-06-22T09:35:23;21.23;;;17.25;;
25936;SDS011;13733;51.178;4.450;2023-06-22T09:37:48;21.73;;;16.67;;
25936;SDS011;13733;51.178;4.450;2023-06-22T09:40:14;22.40;;;16.10;;
25936;SDS011;13733;51.178;4.450;2023-06-22T09:42:41;28.10;;;16.88;;
25936;SDS011;13733;51.178;4.450;2023-06-22T09:45:08;19.88;;;15.48;;
25936;SDS011;13733;51.178;4.450;2023-06-22T09:47:34;18.38;;;15.63;;
25936;SDS011;13733;51.178;4.450;2023-06-22T09:49:59;21.00;;;15.30;;
25936;SDS011;13733;51.178;4.450;2023-06-22T09:52:25;21.52;;;16.33;;
25936;SDS011;13733;51.178;4.450;2023-06-22T09:54:51;24.98;;;16.60;;
25936;SDS011;13733;51.178;4.450;2023-06-22T09:57:17;23.23;;;17.77;;
25936;SDS011;13733;51.178;4.450;2023-06-22T09:59:43;24.40;;;18.00;;
25936;SDS011;13733;51.178;4.450;2023-06-22T10:02:08;21.23;;;15.65;;
25936;SDS011;13733;51.178;4.450;2023-06-22T10:04:34;23.17;;;17.02;;
25936;SDS011;13733;51.178;4.450;2023-06-22T10:07:01;23.98;;;18.40;;
25936;SDS011;13733;51.178;4.450;2023-06-22T10:09:28;20.45;;;16.40;;
25936;SDS011;13733;51.178;4.450;2023-06-22T10:11:54;22.55;;;16.58;;
25936;SDS011;13733;51.178;4.450;2023-06-22T10:14:19;24.65;;;16.50;;
25936;SDS011;13733;51.178;4.450;2023-06-22T10:16:45;24.73;;;17.67;;
25936;SDS011;13733;51.178;4.450;2023-06-22T10:19:11;19.75;;;17.65;;
25936;SDS011;13733;51.178;4.450;2023-06-22T10:21:37;20.20;;;16.10;;
25936;SDS011;13733;51.178;4.450;2023-06-22T10:24:02;19.58;;;16.48;;
25936;SDS011;13733;51.178;4.450;2023-06-22T10:26:34;20.33;;;17.15;;
25936;SDS011;13733;51.178;4.450;2023-06-22T10:29:01;27.23;;;17.13;;
25936;SDS011;13733;51.178;4.450;2023-06-22T10:31:27;20.13;;;16.10;;
25936;SDS011;13733;51.178;4.450;2023-06-22T10:33:53;19.17;;;16.70;;
25936;SDS011;13733;51.178;4.450;2023-06-22T10:36:20;20.42;;;17.00;;
25936;SDS011;13733;51.178;4.450;2023-06-22T10:38:47;23.77;;;17.33;;
25936;SDS011;13733;51.178;4.450;2023-06-22T10:41:14;26.55;;;18.30;;
25936;SDS011;13733;51.178;4.450;2023-06-22T10:43:39;25.65;;;19.92;;
25936;SDS011;13733;51.178;4.450;2023-06-22T10:46:06;24.20;;;18.08;;
25936;SDS011;13733;51.178;4.450;2023-06-22T10:48:31;24.05;;;20.10;;
25936;SDS011;13733;51.178;4.450;2023-06-22T10:50:57;25.90;;;19.83;;
25936;SDS011;13733;51.178;4.450;2023-06-22T10:53:23;26.42;;;19.80;;
25936;SDS011;13733;51.178;4.450;2023-06-22T10:55:49;22.10;;;19.65;;
25936;SDS011;13733;51.178;4.450;2023-06-22T10:58:17;24.67;;;20.75;;
25936;SDS011;13733;51.178;4.450;2023-06-22T11:00:44;27.20;;;22.10;;
25936;SDS011;13733;51.178;4.450;2023-06-22T11:03:10;23.98;;;19.98;;
25936;SDS011;13733;51.178;4.450;2023-06-22T11:05:36;28.70;;;20.45;;
25936;SDS011;13733;51.178;4.450;2023-06-22T11:08:01;26.33;;;20.05;;
25936;SDS011;13733;51.178;4.450;2023-06-22T11:10:27;22.45;;;18.75;;
25936;SDS011;13733;51.178;4.450;2023-06-22T11:12:53;21.27;;;18.90;;
25936;SDS011;13733;51.178;4.450;2023-06-22T11:15:20;22.65;;;18.42;;
25936;SDS011;13733;51.178;4.450;2023-06-22T11:17:46;23.13;;;16.73;;
25936;SDS011;13733;51.178;4.450;2023-06-22T11:20:12;19.67;;;15.35;;
25936;SDS011;13733;51.178;4.450;2023-06-22T11:22:38;19.60;;;16.13;;
25936;SDS011;13733;51.178;4.450;2023-06-22T11:25:06;20.70;;;17.50;;
25936;SDS011;13733;51.178;4.450;2023-06-22T11:27:32;23.20;;;17.75;;
25936;SDS011;13733;51.178;4.450;2023-06-22T11:29:58;18.40;;;16.27;;
25936;SDS011;13733;51.178;4.450;2023-06-22T11:32:24;23.98;;;17.70;;
25936;SDS011;13733;51.178;4.450;2023-06-22T11:34:50;21.50;;;17.63;;
25936;SDS011;13733;51.178;4.450;2023-06-22T11:37:16;23.50;;;19.50;;
25936;SDS011;13733;51.178;4.450;2023-06-22T11:39:42;24.58;;;18.83;;
25936;SDS011;13733;51.178;4.450;2023-06-22T11:42:08;20.67;;;17.08;;
25936;SDS011;13733;51.178;4.450;2023-06-22T11:44:34;21.20;;;19.00;;
25936;SDS011;13733;51.178;4.450;2023-06-22T11:47:00;20.95;;;17.27;;
25936;SDS011;13733;51.178;4.450;2023-06-22T11:49:28;22.73;;;17.40;;
25936;SDS011;13733;51.178;4.450;2023-06-22T11:51:56;27.13;;;20.05;;
25936;SDS011;13733;51.178;4.450;2023-06-22T11:54:21;25.00;;;19.95;;
25936;SDS011;13733;51.178;4.450;2023-06-22T11:56:47;25.40;;;18.95;;
25936;SDS011;13733;51.178;4.450;2023-06-22T11:59:13;27.17;;;19.67;;
25936;SDS011;13733;51.178;4.450;2023-06-22T12:01:38;22.80;;;19.92;;
25936;SDS011;13733;51.178;4.450;2023-06-22T12:04:05;27.00;;;21.23;;
25936;SDS011;13733;51.178;4.450;2023-06-22T12:06:35;26.10;;;20.98;;
25936;SDS011;13733;51.178;4.450;2023-06-22T12:09:03;25.63;;;20.80;;
25936;SDS011;13733;51.178;4.450;2023-06-22T12:11:30;29.17;;;21.70;;
25936;SDS011;13733;51.178;4.450;2023-06-22T12:13:55;26.77;;;21.52;;
25936;SDS011;13733;51.178;4.450;2023-06-22T12:16:22;28.10;;;21.95;;
25936;SDS011;13733;51.178;4.450;2023-06-22T12:18:49;26.33;;;22.77;;
25936;SDS011;13733;51.178;4.450;2023-06-22T12:21:15;24.90;;;18.35;;
25936;SDS011;13733;51.178;4.450;2023-06-22T12:23:41;20.20;;;18.02;;
25936;SDS011;13733;51.178;4.450;2023-06-22T12:26:06;19.40;;;17.08;;
25936;SDS011;13733;51.178;4.450;2023-06-22T12:28:32;22.80;;;18.40;;
25936;SDS011;13733;51.178;4.450;2023-06-22T12:30:58;24.02;;;18.63;;
25936;SDS011;13733;51.178;4.450;2023-06-22T12:33:24;19.45;;;16.95;;
25936;SDS011;13733;51.178;4.450;2023-06-22T12:35:49;20.88;;;17.95;;
25936;SDS011;13733;51.178;4.450;2023-06-22T12:38:15;22.17;;;17.45;;
25936;SDS011;13733;51.178;4.450;2023-06-22T12:40:41;22.55;;;17.38;;
25936;SDS011;13733;51.178;4.450;2023-06-22T12:43:06;19.88;;;16.65;;
25936;SDS011;13733;51.178;4.450;2023-06-22T12:45:34;22.15;;;17.70;;
25936;SDS011;13733;51.178;4.450;2023-06-22T12:48:00;17.95;;;16.10;;
25936;SDS011;13733;51.178;4.450;2023-06-22T12:50:26;19.30;;;16.65;;
25936;SDS011;13733;51.178;4.450;2023-06-22T12:52:52;23.48;;;18.52;;
25936;SDS011;13733;51.178;4.450;2023-06-22T12:55:18;22.52;;;18.60;;
25936;SDS011;13733;51.178;4.450;2023-06-22T12:57:43;21.40;;;17.60;;
25936;SDS011;13733;51.178;4.450;2023-06-22T13:00:09;21.25;;;17.80;;
25936;SDS011;13733;51.178;4.450;2023-06-22T13:02:36;22.67;;;18.55;;
25936;SDS011;13733;51.178;4.450;2023-06-22T13:05:02;21.52;;;18.58;;
25936;SDS011;13733;51.178;4.450;2023-06-22T13:07:30;25.42;;;19.48;;
25936;SDS011;13733;51.178;4.450;2023-06-22T13:09:55;24.30;;;20.08;;
25936;SDS011;13733;51.178;4.450;2023-06-22T13:12:21;25.40;;;20.23;;
25936;SDS011;13733;51.178;4.450;2023-06-22T13:14:48;25.88;;;20.77;;
25936;SDS011;13733;51.178;4.450;2023-06-22T13:17:14;31.13;;;21.73;;
25936;SDS011;13733;51.178;4.450;2023-06-22T13:19:40;26.45;;;22.38;;
25936;SDS011;13733;51.178;4.450;2023-06-22T13:22:09;26.10;;;22.77;;
25936;SDS011;13733;51.178;4.450;2023-06-22T13:24:58;30.52;;;24.17;;
25936;SDS011;13733;51.178;4.450;2023-06-22T13:27:24;32.03;;;24.45;;
25936;SDS011;13733;51.178;4.450;2023-06-22T13:29:50;28.63;;;24.02;;
25936;SDS011;13733;51.178;4.450;2023-06-22T13:32:16;27.27;;;23.75;;
25936;SDS011;13733;51.178;4.450;2023-06-22T13:34:43;27.25;;;21.95;;
25936;SDS011;13733;51.178;4.450;2023-06-22T13:37:08;26.50;;;21.95;;
25936;SDS011;13733;51.178;4.450;2023-06-22T13:39:35;29.35;;;24.95;;
25936;SDS011;13733;51.178;4.450;2023-06-22T13:42:01;31.73;;;26.50;;
25936;SDS011;13733;51.178;4.450;2023-06-22T13:44:27;28.52;;;24.48;;
25936;SDS011;13733;51.178;4.450;2023-06-22T13:46:57;29.90;;;25.48;;
25936;SDS011;13733;51.178;4.450;2023-06-22T13:49:23;31.90;;;26.63;;
25936;SDS011;13733;51.178;4.450;2023-06-22T13:51:48;33.72;;;26.85;;
25936;SDS011;13733;51.178;4.450;2023-06-22T13:54:15;27.83;;;24.52;;
25936;SDS011;13733;51.178;4.450;2023-06-22T13:56:41;29.73;;;25.25;;
25936;SDS011;13733;51.178;4.450;2023-06-22T13:59:07;33.80;;;26.42;;
25936;SDS011;13733;51.178;4.450;2023-06-22T14:01:37;32.45;;;27.27;;
25936;SDS011;13733;51.178;4.450;2023-06-22T14:06:30;33.95;;;28.35;;
25936;SDS011;13733;51.178;4.450;2023-06-22T14:08:56;37.47;;;31.17;;
25936;SDS011;13733;51.178;4.450;2023-06-22T14:11:22;34.92;;;30.40;;
25936;SDS011;13733;51.178;4.450;2023-06-22T14:13:48;38.70;;;31.15;;
25936;SDS011;13733;51.178;4.450;2023-06-22T14:16:13;42.47;;;33.08;;
25936;SDS011;13733;51.178;4.450;2023-06-22T14:18:39;37.65;;;31.95;;
25936;SDS011;13733;51.178;4.450;2023-06-22T14:21:05;39.10;;;31.17;;
25936;SDS011;13733;51.178;4.450;2023-06-22T14:23:30;38.50;;;31.25;;
25936;SDS011;13733;51.178;4.450;2023-06-22T14:25:56;40.72;;;31.80;;
25936;SDS011;13733;51.178;4.450;2023-06-22T14:28:22;36.30;;;28.00;;
25936;SDS011;13733;51.178;4.450;2023-06-22T14:30:48;37.78;;;28.67;;
25936;SDS011;13733;51.178;4.450;2023-06-22T14:33:14;35.70;;;28.15;;
25936;SDS011;13733;51.178;4.450;2023-06-22T14:35:40;30.85;;;26.02;;
25936;SDS011;13733;51.178;4.450;2023-06-22T14:38:06;33.25;;;26.70;;